Time;durP1;ratioP1;P1;durP2;ratioP2;P2;SDS_P1;SDS_P2;PMS_P1;PMS_P2;Temp;Humidity;BMP_temperature;BMP_pressure;BME280_temperature;BME280_humidity;BME280_pressure;Samples;Min_cycle;Max_cycle;Signal;HPM_P1;HPM_P2
2022/06/13 00:01:24;;;;;;;6.55;2.60;;;;;;;25.08;51.30;99677.44;4132588;28;21053;-68
2022/06/13 00:03:26;;;;;;;4.35;2.60;;;;;;;26.44;48.92;99702.38;4129004;28;20299;-68
2022/06/13 00:05:28;;;;;;;4.07;2.67;;;;;;;26.10;49.45;99704.66;4126831;28;20718;-67
2022/06/13 00:07:30;;;;;;;6.95;2.95;;;;;;;26.90;48.10;99701.75;4126662;28;20234;-67
2022/06/13 00:09:32;;;;;;;5.80;2.70;;;;;;;27.30;46.96;99710.28;4131820;28;20230;-67
2022/06/13 00:11:34;;;;;;;7.00;3.20;;;;;;;27.05;47.31;99723.59;4132654;28;20793;-68
2022/06/13 00:13:39;;;;;;;5.47;2.92;;;;;;;27.00;47.88;99728.25;4129262;28;20241;-67
2022/06/13 00:15:41;;;;;;;4.97;2.70;;;;;;;26.34;48.88;99732.34;4137100;28;20241;-68
2022/06/13 00:17:43;;;;;;;6.13;2.95;;;;;;;26.23;48.85;99744.25;4129673;28;20233;-68
2022/06/13 00:19:44;;;;;;;3.58;2.80;;;;;;;26.38;48.98;99746.25;4126608;28;20677;-67
2022/06/13 00:21:46;;;;;;;6.93;2.88;;;;;;;26.51;48.31;99746.63;4132584;28;20245;-67
2022/06/13 00:23:49;;;;;;;5.35;2.72;;;;;;;25.99;49.27;99758.28;4132177;28;20241;-67
2022/06/13 00:25:51;;;;;;;4.40;2.50;;;;;;;25.85;49.36;99740.72;4132776;28;20269;-68
2022/06/13 00:27:52;;;;;;;7.07;2.58;;;;;;;25.89;49.52;99741.81;4128445;28;21523;-68
2022/06/13 00:29:54;;;;;;;5.15;2.70;;;;;;;26.19;48.86;99733.06;4134623;28;20268;-68
2022/06/13 00:31:56;;;;;;;5.10;2.75;;;;;;;25.87;49.40;99742.09;4130019;28;20234;-68
2022/06/13 00:33:57;;;;;;;4.43;2.72;;;;;;;25.60;50.07;99745.69;4133434;28;20229;-67
2022/06/13 00:35:59;;;;;;;6.88;2.95;;;;;;;26.42;48.66;99740.00;4127732;28;20235;-68
2022/06/13 00:38:01;;;;;;;4.57;2.60;;;;;;;27.00;47.18;99742.69;4135458;28;20604;-68
2022/06/13 00:40:04;;;;;;;4.05;2.42;;;;;;;26.82;47.63;99749.44;4130571;28;20292;-68
2022/06/13 00:42:05;;;;;;;6.60;2.70;;;;;;;25.33;50.16;99763.91;4128096;28;20238;-68
2022/06/13 00:44:32;;;;;;;5.55;3.10;;;;;;;24.49;52.76;99734.09;4135289;28;20233;-68
2022/06/13 00:46:35;;;;;;;5.18;2.47;;;;;;;25.03;51.11;99738.84;4128104;28;20280;-67
2022/06/13 00:48:36;;;;;;;4.07;2.25;;;;;;;25.54;50.58;99735.00;4133966;28;20238;-68
2022/06/13 00:50:45;;;;;;;3.45;2.40;;;;;;;26.47;48.55;99750.94;4131652;28;20637;-68
2022/06/13 00:52:51;;;;;;;6.38;2.90;;;;;;;26.51;48.76;99752.06;4131562;28;20242;-68
2022/06/13 00:54:55;;;;;;;4.40;2.40;;;;;;;26.83;47.95;99751.09;4125697;28;20233;-68
2022/06/13 00:56:57;;;;;;;7.47;2.95;;;;;;;27.05;47.37;99750.91;4133911;28;20237;-68
2022/06/13 00:59:03;;;;;;;3.47;2.72;;;;;;;26.87;47.61;99757.66;4130692;28;20237;-68
2022/06/13 01:01:06;;;;;;;3.45;2.30;;;;;;;26.48;48.28;99755.28;4131252;28;20237;-68
2022/06/13 01:03:08;;;;;;;8.45;2.72;;;;;;;26.08;48.94;99744.97;4129384;28;20240;-68
2022/06/13 01:05:12;;;;;;;4.47;2.30;;;;;;;26.66;47.60;99736.88;4127322;28;20244;-67
2022/06/13 01:07:14;;;;;;;4.57;2.50;;;;;;;26.53;47.84;99757.25;4130741;28;20241;-68
2022/06/13 01:09:18;;;;;;;4.55;2.50;;;;;;;25.26;50.50;99747.78;4131205;28;20241;-67
2022/06/13 01:11:24;;;;;;;5.43;2.53;;;;;;;26.00;49.54;99746.31;4132485;28;20233;-68
2022/06/13 01:13:33;;;;;;;4.55;2.50;;;;;;;25.87;48.99;99754.88;4127917;28;20270;-68
2022/06/13 01:16:03;;;;;;;3.78;2.58;;;;;;;26.34;48.11;99752.22;4133866;28;20232;-68
2022/06/13 01:18:16;;;;;;;3.80;2.60;;;;;;;24.98;50.80;99752.38;4129804;28;20719;-67
2022/06/13 01:20:33;;;;;;;7.10;2.78;;;;;;;24.45;52.57;99732.97;4131515;28;20583;-68
2022/06/13 01:22:46;;;;;;;5.97;3.38;;;;;;;24.79;51.79;99743.75;4127717;28;20636;-68
2022/06/13 01:25:06;;;;;;;5.63;2.60;;;;;;;25.51;50.14;99735.53;4123631;28;20268;-67
2022/06/13 01:27:29;;;;;;;3.75;2.70;;;;;;;26.02;49.08;99751.50;4126406;28;20245;-68
2022/06/13 01:29:40;;;;;;;5.15;2.83;;;;;;;26.31;48.32;99763.66;4131560;28;20791;-68
2022/06/13 01:31:53;;;;;;;8.18;2.88;;;;;;;25.93;49.31;99779.19;4130850;28;20851;-68
2022/06/13 01:34:08;;;;;;;3.70;2.67;;;;;;;25.84;49.78;99769.84;4121410;28;20233;-67
2022/06/13 01:36:25;;;;;;;5.93;2.60;;;;;;;25.89;49.45;99775.31;4127877;28;20965;-68
2022/06/13 01:38:38;;;;;;;4.78;3.08;;;;;;;25.52;50.25;99780.72;4134651;28;20275;-68
2022/06/13 01:41:02;;;;;;;3.47;2.42;;;;;;;25.28;51.04;99766.59;4129253;28;20230;-67
2022/06/13 01:43:06;;;;;;;5.60;2.72;;;;;;;25.24;50.78;99767.09;4128278;28;20234;-68
2022/06/13 01:45:34;;;;;;;3.88;2.47;;;;;;;25.60;50.60;99753.84;4127769;28;20241;-68
2022/06/13 01:47:54;;;;;;;5.15;2.75;;;;;;;25.41;50.72;99756.13;4135597;28;20244;-68
2022/06/13 01:50:05;;;;;;;4.78;2.75;;;;;;;26.27;48.71;99757.09;4123509;28;20651;-68
2022/06/13 01:52:26;;;;;;;3.55;2.70;;;;;;;24.72;52.02;99770.28;4129117;28;20827;-67
2022/06/13 01:54:42;;;;;;;7.00;2.70;;;;;;;25.27;50.96;99756.78;4126779;28;20288;-67
2022/06/13 01:56:49;;;;;;;4.05;2.92;;;;;;;25.26;50.80;99755.16;4133303;28;20819;-68
2022/06/13 01:58:59;;;;;;;4.75;2.75;;;;;;;25.60;49.83;99756.56;4124413;28;20233;-68
2022/06/13 02:01:06;;;;;;;4.65;2.60;;;;;;;25.14;51.13;99761.56;4119513;28;21202;-68
2022/06/13 02:03:10;;;;;;;4.03;2.50;;;;;;;25.13;51.22;99767.25;4128146;28;20241;-68
2022/06/13 02:05:24;;;;;;;5.00;2.70;;;;;;;25.90;49.16;99768.00;4126847;28;20802;-68
2022/06/13 02:07:33;;;;;;;3.58;2.65;;;;;;;25.09;50.59;99780.53;4127078;28;20238;-68
2022/06/13 02:10:10;;;;;;;4.47;2.38;;;;;;;25.94;48.88;99769.94;4126369;28;20882;-68
2022/06/13 02:12:13;;;;;;;5.28;2.95;;;;;;;25.75;48.99;99794.00;4127454;28;20299;-67
2022/06/13 02:14:22;;;;;;;5.95;3.42;;;;;;;25.53;49.49;99790.56;4128359;28;20233;-68
2022/06/13 02:16:36;;;;;;;4.55;2.85;;;;;;;25.45;50.07;99796.44;4129153;28;20229;-68
2022/06/13 02:18:50;;;;;;;6.10;3.55;;;;;;;25.53;49.46;99796.81;4133024;28;20392;-68
2022/06/13 02:21:04;;;;;;;4.88;3.85;;;;;;;25.39;49.78;99795.56;4124829;28;20222;-68
2022/06/13 02:23:12;;;;;;;4.20;3.35;;;;;;;25.01;50.53;99795.41;4123498;28;20289;-68
2022/06/13 02:25:19;;;;;;;6.22;3.40;;;;;;;24.66;51.04;99793.03;4133853;28;20240;-67
2022/06/13 02:27:24;;;;;;;4.75;3.38;;;;;;;24.45;51.81;99790.03;4130076;28;20237;-67
2022/06/13 02:29:37;;;;;;;5.90;3.97;;;;;;;25.24;50.19;99782.63;4134245;28;20927;-68
2022/06/13 02:31:51;;;;;;;8.68;5.97;;;;;;;24.39;52.08;99784.78;4126196;28;20300;-68
2022/06/13 02:34:40;;;;;;;6.53;4.25;;;;;;;25.18;50.30;99775.47;4123222;28;20621;-68
2022/06/13 02:37:09;;;;;;;12.23;10.35;;;;;;;25.77;49.06;99788.31;4123375;28;20726;-68
2022/06/13 02:39:23;;;;;;;12.57;11.27;;;;;;;26.08;48.09;99796.75;4123079;28;20923;-68
2022/06/13 02:41:34;;;;;;;16.17;13.05;;;;;;;25.47;49.16;99802.47;4128494;28;20729;-67
2022/06/13 02:43:45;;;;;;;8.57;6.88;;;;;;;25.19;49.00;99809.78;4126378;28;20226;-68
2022/06/13 02:46:02;;;;;;;7.85;5.03;;;;;;;24.99;50.20;99811.16;4125523;28;20317;-67
2022/06/13 02:48:11;;;;;;;6.70;5.28;;;;;;;25.53;48.89;99796.81;4128963;28;20234;-67
2022/06/13 02:50:43;;;;;;;7.85;5.40;;;;;;;24.77;50.26;99811.16;4125830;28;20291;-68
2022/06/13 02:53:00;;;;;;;7.70;4.70;;;;;;;24.24;51.91;99791.63;4130987;28;20238;-67
2022/06/13 02:55:08;;;;;;;5.57;4.72;;;;;;;24.42;51.14;99787.81;4115872;28;20233;-68
2022/06/13 02:57:23;;;;;;;7.30;5.13;;;;;;;25.21;49.58;99792.09;4134575;28;20262;-67
2022/06/13 02:59:52;;;;;;;11.05;5.60;;;;;;;25.38;49.17;99789.31;4127386;28;20226;-68
2022/06/13 03:01:57;;;;;;;8.45;5.75;;;;;;;25.40;48.50;99806.19;4127222;28;20233;-68
2022/06/13 03:04:19;;;;;;;6.00;4.50;;;;;;;25.29;49.25;99801.72;4125244;28;20225;-68
2022/06/13 03:06:31;;;;;;;6.53;4.38;;;;;;;25.26;48.98;99802.22;4128976;28;20237;-68
2022/06/13 03:08:54;;;;;;;5.53;3.83;;;;;;;25.53;48.75;99801.44;4126045;28;20233;-67
2022/06/13 03:11:18;;;;;;;5.68;3.70;;;;;;;25.46;48.38;99800.81;4126746;28;20236;-68
2022/06/13 03:13:27;;;;;;;7.55;3.70;;;;;;;25.38;48.47;99813.81;4119758;28;20290;-67
2022/06/13 03:15:37;;;;;;;4.57;3.63;;;;;;;25.39;48.89;99809.16;4132201;28;20286;-67
2022/06/13 03:18:06;;;;;;;5.65;3.55;;;;;;;25.50;48.38;99818.28;4127407;28;20601;-67
2022/06/13 03:20:20;;;;;;;4.22;3.67;;;;;;;25.62;48.17;99815.41;4125386;28;20237;-68
2022/06/13 03:22:46;;;;;;;4.70;3.57;;;;;;;24.98;49.54;99828.53;4124727;28;20268;-68
2022/06/13 03:24:51;;;;;;;4.35;3.63;;;;;;;24.67;49.14;99825.41;4124003;28;20225;-67
2022/06/13 03:27:03;;;;;;;7.75;3.15;;;;;;;24.95;46.16;99828.22;4126626;28;20233;-68
2022/06/13 03:29:15;;;;;;;6.37;2.53;;;;;;;24.61;45.05;99822.88;4135327;28;20238;-67
2022/06/13 03:31:23;;;;;;;8.23;2.60;;;;;;;24.12;43.78;99839.78;4124254;28;20241;-66
2022/06/13 03:33:40;;;;;;;10.03;3.30;;;;;;;24.29;43.66;99840.63;4130300;28;20248;-70
2022/06/13 03:35:45;;;;;;;6.30;2.57;;;;;;;23.26;44.24;99842.56;4128744;28;20850;-68
2022/06/13 03:37:50;;;;;;;6.00;2.63;;;;;;;23.14;45.23;99831.75;4134502;28;20238;-68
2022/06/13 03:40:17;;;;;;;5.60;2.80;;;;;;;23.90;43.91;99826.09;4124883;28;20302;-70
2022/06/13 03:42:29;;;;;;;6.47;3.07;;;;;;;23.87;43.92;99829.31;4133133;28;20927;-67
2022/06/13 03:44:38;;;;;;;8.13;3.20;;;;;;;23.51;45.82;99836.78;4128563;28;20590;-68
2022/06/13 03:46:56;;;;;;;6.83;3.43;;;;;;;24.05;45.01;99828.25;4139004;28;20291;-70
2022/06/13 03:49:05;;;;;;;4.63;3.10;;;;;;;23.80;46.22;99832.19;4125764;28;20226;-67
2022/06/13 03:51:14;;;;;;;7.20;3.40;;;;;;;23.73;46.42;99837.75;4122638;28;20296;-69
2022/06/13 03:53:26;;;;;;;5.83;3.03;;;;;;;23.66;46.29;99834.38;4129172;28;20291;-69
2022/06/13 03:55:38;;;;;;;5.40;3.07;;;;;;;23.68;46.14;99836.84;4134117;28;20236;-69
2022/06/13 03:58:07;;;;;;;5.33;3.50;;;;;;;23.70;46.19;99835.53;4131093;28;20241;-69
2022/06/13 04:00:13;;;;;;;6.67;3.20;;;;;;;23.64;46.06;99835.72;4133037;28;20260;-69
2022/06/13 04:02:18;;;;;;;4.63;3.13;;;;;;;23.60;46.20;99839.97;4131888;28;20229;-69
2022/06/13 04:04:33;;;;;;;7.13;3.30;;;;;;;23.71;46.14;99830.94;4127293;28;20292;-69
2022/06/13 04:06:40;;;;;;;5.20;3.20;;;;;;;23.76;46.08;99822.88;4131973;28;20229;-69
2022/06/13 04:08:41;;;;;;;6.63;3.40;;;;;;;23.84;45.90;99836.06;4134322;28;20233;-69
2022/06/13 04:11:13;;;;;;;7.37;3.33;;;;;;;23.83;46.12;99823.56;4133309;28;20254;-68
2022/06/13 04:13:43;;;;;;;5.20;2.70;;;;;;;23.58;46.19;99832.88;4128315;28;20237;-68
2022/06/13 04:15:53;;;;;;;7.20;3.00;;;;;;;23.60;46.07;99835.34;4133780;28;20234;-68
2022/06/13 04:18:09;;;;;;;5.13;2.90;;;;;;;23.20;46.90;99839.75;4127269;28;20222;-68
2022/06/13 04:20:48;;;;;;;9.17;3.20;;;;;;;23.27;47.10;99841.50;4132992;28;20232;-68
2022/06/13 04:23:25;;;;;;;4.47;3.10;;;;;;;23.19;46.98;99848.13;4131946;28;20233;-68
2022/06/13 04:25:35;;;;;;;7.37;3.80;;;;;;;21.41;49.78;99857.91;4126990;28;20229;-69
2022/06/13 04:27:54;;;;;;;5.33;3.00;;;;;;;23.15;47.08;99833.41;4131373;28;20280;-68
2022/06/13 04:30:10;;;;;;;5.67;3.60;;;;;;;23.24;46.78;99839.25;4134263;28;20237;-68
2022/06/13 04:32:18;;;;;;;5.10;2.80;;;;;;;23.45;45.92;99845.91;4133932;28;20237;-68
2022/06/13 04:34:28;;;;;;;6.23;3.00;;;;;;;22.65;45.68;99857.25;4131472;28;20232;-68
2022/06/13 04:36:31;;;;;;;5.37;2.60;;;;;;;23.10;45.26;99863.94;4132621;28;20311;-68
2022/06/13 04:38:35;;;;;;;5.27;2.90;;;;;;;22.68;45.47;99880.34;4133310;28;20230;-69
2022/06/13 04:40:42;;;;;;;4.60;2.90;;;;;;;21.73;47.17;99858.53;4126404;28;20264;-68
2022/06/13 04:42:46;;;;;;;6.53;2.87;;;;;;;21.23;47.84;99868.75;4134274;28;20257;-69
2022/06/13 04:44:49;;;;;;;7.37;3.13;;;;;;;22.29;46.10;99861.03;4130574;28;20236;-68
2022/06/13 04:46:53;;;;;;;4.67;2.80;;;;;;;22.41;46.20;99861.84;4132558;28;20234;-69
2022/06/13 04:48:58;;;;;;;5.17;2.60;;;;;;;21.95;46.98;99878.81;4130101;28;20233;-69
2022/06/13 04:51:08;;;;;;;6.17;2.63;;;;;;;22.44;45.92;99871.41;4126611;28;20292;-69
2022/06/13 04:53:24;;;;;;;4.63;2.97;;;;;;;22.03;46.45;99886.59;4116352;28;20276;-68
2022/06/13 04:55:42;;;;;;;6.30;3.00;;;;;;;22.63;45.75;99880.25;4128079;28;20235;-68
2022/06/13 04:57:44;;;;;;;7.13;2.90;;;;;;;22.71;45.30;99885.31;4131693;28;20260;-68
2022/06/13 04:59:46;;;;;;;7.53;2.83;;;;;;;22.78;45.22;99885.19;4137536;28;20244;-68
2022/06/13 05:01:50;;;;;;;7.40;2.93;;;;;;;22.16;46.22;99904.53;4128895;28;20296;-69
2022/06/13 05:03:54;;;;;;;8.83;2.90;;;;;;;21.60;46.81;99903.84;4127228;28;20242;-68
2022/06/13 05:06:02;;;;;;;6.97;3.47;;;;;;;22.49;45.82;99890.50;4129374;28;20710;-68
2022/06/13 05:08:21;;;;;;;8.97;3.73;;;;;;;23.13;44.80;99887.88;4129663;28;20307;-69
2022/06/13 05:10:27;;;;;;;5.90;3.13;;;;;;;22.90;45.08;99894.13;4135370;28;20655;-68
2022/06/13 05:12:44;;;;;;;6.80;3.27;;;;;;;22.82;45.36;99897.19;4125372;28;20348;-69
2022/06/13 05:14:45;;;;;;;5.70;3.20;;;;;;;22.40;45.96;99900.81;4125636;28;20230;-68
2022/06/13 05:17:09;;;;;;;4.70;2.63;;;;;;;22.32;45.88;99906.63;4134895;28;20237;-68
2022/06/13 05:19:26;;;;;;;4.83;2.57;;;;;;;22.27;45.43;99914.56;4130730;28;20859;-68
2022/06/13 05:21:40;;;;;;;7.80;3.10;;;;;;;22.44;45.83;99914.75;4127590;28;20635;-69
2022/06/13 05:24:06;;;;;;;5.53;2.83;;;;;;;22.68;45.27;99909.34;4136153;28;20241;-68
2022/06/13 05:26:08;;;;;;;8.27;2.97;;;;;;;21.82;46.51;99933.97;4127136;28;20248;-69
2022/06/13 05:28:16;;;;;;;4.83;2.77;;;;;;;22.18;46.10;99921.38;4137566;28;20233;-69
2022/06/13 05:30:18;;;;;;;9.60;2.93;;;;;;;22.31;46.04;99926.63;4130062;28;20252;-68
2022/06/13 05:32:22;;;;;;;5.50;3.40;;;;;;;22.03;46.72;99927.22;4133986;28;20305;-68
2022/06/13 05:34:33;;;;;;;9.53;2.70;;;;;;;22.12;46.67;99920.44;4130382;28;20233;-69
2022/06/13 05:36:34;;;;;;;7.77;3.47;;;;;;;22.19;46.34;99926.56;4131303;28;20229;-68
2022/06/13 05:38:58;;;;;;;8.50;3.40;;;;;;;22.54;45.96;99925.84;4130977;28;20288;-68
2022/06/13 05:40:59;;;;;;;6.90;3.13;;;;;;;22.60;46.36;99934.91;4129728;28;20241;-68
2022/06/13 05:43:01;;;;;;;5.33;2.93;;;;;;;22.43;46.06;99941.00;4134746;28;20247;-68
2022/06/13 05:45:03;;;;;;;4.20;2.60;;;;;;;22.46;46.72;99924.28;4130931;28;20242;-69
2022/06/13 05:47:13;;;;;;;9.73;2.87;;;;;;;22.55;46.01;99932.06;4132358;28;20307;-69
2022/06/13 05:49:17;;;;;;;6.37;2.90;;;;;;;22.63;45.89;99940.69;4130106;28;20237;-68
2022/06/13 05:51:18;;;;;;;5.70;2.83;;;;;;;22.88;45.52;99927.94;4131176;28;20245;-69
2022/06/13 05:53:24;;;;;;;7.37;3.57;;;;;;;22.32;46.46;99943.69;4126999;28;20781;-68
2022/06/13 05:55:26;;;;;;;7.90;2.83;;;;;;;22.93;45.39;99930.78;4133160;28;20315;-68
2022/06/13 05:57:36;;;;;;;5.47;3.00;;;;;;;22.39;45.61;99939.81;4131183;28;20245;-68
2022/06/13 05:59:37;;;;;;;4.60;2.73;;;;;;;22.86;45.09;99932.78;4135065;28;20291;-69
2022/06/13 06:01:39;;;;;;;5.43;2.70;;;;;;;21.90;46.35;99942.59;4131944;28;20248;-69
2022/06/13 06:03:42;;;;;;;6.75;2.80;;;;;;;22.30;45.58;99935.78;4126072;28;20245;-68
2022/06/13 06:05:44;;;;;;;5.80;2.60;;;;;;;21.51;46.34;99952.00;4125857;28;20226;-68
2022/06/13 06:07:46;;;;;;;7.43;2.77;;;;;;;22.05;45.54;99939.47;4125006;28;20957;-68
2022/06/13 06:09:47;;;;;;;6.30;2.90;;;;;;;23.31;43.97;99934.88;4135578;28;20246;-68
2022/06/13 06:11:49;;;;;;;7.43;2.83;;;;;;;23.58;43.65;99943.34;4123797;28;20249;-68
2022/06/13 06:13:51;;;;;;;7.30;2.70;;;;;;;23.04;43.79;99957.09;4124479;28;20234;-68
2022/06/13 06:15:54;;;;;;;7.17;2.80;;;;;;;21.69;45.57;99967.44;4129785;28;20463;-69
2022/06/13 06:17:56;;;;;;;6.17;2.43;;;;;;;22.81;43.95;99958.72;4131294;28;20233;-69
2022/06/13 06:19:58;;;;;;;4.87;2.40;;;;;;;23.15;43.46;99963.59;4132680;28;20238;-69
2022/06/13 06:22:00;;;;;;;6.20;3.10;;;;;;;23.22;43.29;99964.28;4126313;28;20715;-68
2022/06/13 06:24:02;;;;;;;5.40;2.63;;;;;;;23.75;42.61;99965.13;4134374;28;20230;-68
2022/06/13 06:26:05;;;;;;;5.37;2.70;;;;;;;23.68;42.94;99967.16;4126804;28;20230;-69
2022/06/13 06:28:07;;;;;;;5.67;3.17;;;;;;;23.56;43.16;99967.19;4133103;28;20226;-69
2022/06/13 06:30:29;;;;;;;6.80;2.70;;;;;;;23.74;42.28;99967.00;4128782;28;20245;-68
2022/06/13 06:32:31;;;;;;;7.93;2.55;;;;;;;23.41;42.06;99975.78;4133008;28;20292;-68
2022/06/13 06:34:33;;;;;;;7.75;2.97;;;;;;;22.98;43.53;99974.31;4126750;28;20565;-69
2022/06/13 06:36:35;;;;;;;7.00;2.80;;;;;;;23.35;42.39;99974.03;4132549;28;20261;-69
2022/06/13 06:38:36;;;;;;;6.20;2.80;;;;;;;22.98;42.91;99977.84;4133300;28;20230;-68
2022/06/13 06:40:40;;;;;;;8.13;2.97;;;;;;;23.60;42.48;99967.53;4130707;28;20702;-68
2022/06/13 06:42:42;;;;;;;4.80;2.60;;;;;;;23.78;42.00;99970.06;4131681;28;20238;-68
2022/06/13 06:44:55;;;;;;;6.82;2.60;;;;;;;22.98;43.07;99979.75;4125568;28;20232;-69
2022/06/13 06:46:57;;;;;;;6.28;2.80;;;;;;;23.24;43.07;99978.41;4130363;28;20225;-69
2022/06/13 06:48:58;;;;;;;9.45;2.83;;;;;;;22.22;44.41;99982.97;4130203;28;20292;-68
2022/06/13 06:51:00;;;;;;;5.97;2.63;;;;;;;23.07;43.75;99975.59;4131184;28;20289;-68
2022/06/13 06:53:02;;;;;;;7.68;2.95;;;;;;;22.58;44.51;99977.69;4128653;28;20291;-68
2022/06/13 06:59:53;;;;;;;4.70;2.53;;;;;;;22.13;45.49;99962.69;4134986;28;20307;-69
2022/06/13 07:01:56;;;;;;;5.72;2.78;;;;;;;23.38;43.70;99941.00;4127865;28;20639;-68
2022/06/13 07:03:58;;;;;;;7.43;3.00;;;;;;;23.57;43.24;99947.94;4131867;28;20225;-69
2022/06/13 07:05:59;;;;;;;6.78;2.72;;;;;;;23.89;43.18;99944.75;4131377;28;20218;-68
2022/06/13 07:08:01;;;;;;;7.32;2.30;;;;;;;24.04;42.12;99943.38;4127429;28;20310;-68
2022/06/13 07:10:03;;;;;;;5.78;3.13;;;;;;;24.21;41.74;99944.28;4126988;28;20271;-68
2022/06/13 07:12:05;;;;;;;5.72;2.92;;;;;;;24.26;41.15;99954.41;4132344;28;20369;-68
2022/06/13 07:14:07;;;;;;;4.90;2.92;;;;;;;24.56;40.45;99972.28;4135338;28;20226;-69
2022/06/13 07:16:09;;;;;;;5.72;2.80;;;;;;;24.12;40.86;99968.25;4128155;28;20290;-69
2022/06/13 07:18:10;;;;;;;5.53;2.88;;;;;;;23.29;42.91;99975.00;4130610;28;20313;-69
2022/06/13 07:20:13;;;;;;;7.03;2.88;;;;;;;23.13;42.97;99971.09;4133079;28;20606;-69
2022/06/13 07:22:18;;;;;;;9.00;3.10;;;;;;;23.91;41.20;99967.06;4132865;28;20706;-68
2022/06/13 07:24:21;;;;;;;7.75;3.50;;;;;;;24.49;40.46;99975.19;4135406;28;20490;-69
2022/06/13 07:26:23;;;;;;;5.07;3.00;;;;;;;22.95;43.41;99980.22;4132533;28;20229;-69
2022/06/13 07:28:28;;;;;;;5.18;2.78;;;;;;;23.73;43.32;99961.81;4136152;28;20231;-69
2022/06/13 07:30:31;;;;;;;6.93;2.70;;;;;;;23.86;42.69;99972.41;4130491;28;20292;-68
2022/06/13 07:32:33;;;;;;;5.93;2.90;;;;;;;24.04;42.09;99956.97;4132989;28;20260;-69
2022/06/13 07:34:37;;;;;;;4.00;2.40;;;;;;;24.36;41.04;99970.06;4131497;28;20230;-69
2022/06/13 07:36:39;;;;;;;5.53;2.72;;;;;;;24.09;42.61;99976.91;4139034;28;20709;-69
2022/06/13 07:38:40;;;;;;;6.32;2.90;;;;;;;24.71;40.12;99972.53;4132533;28;20234;-68
2022/06/13 07:40:47;;;;;;;7.57;2.78;;;;;;;24.82;40.09;99979.00;4133634;28;20229;-68
2022/06/13 07:42:51;;;;;;;4.75;2.50;;;;;;;24.39;41.25;99983.97;4131350;28;20234;-69
2022/06/13 07:44:53;;;;;;;7.28;2.80;;;;;;;24.51;40.74;99962.16;4127723;28;20272;-69
2022/06/13 07:46:55;;;;;;;8.68;3.10;;;;;;;24.47;40.33;99980.03;4127369;28;20224;-69
2022/06/13 07:48:57;;;;;;;5.90;3.10;;;;;;;24.52;40.42;99982.84;4129591;28;20241;-69
2022/06/13 07:51:00;;;;;;;6.65;2.78;;;;;;;23.95;40.67;99992.66;4122592;28;20237;-68
2022/06/13 07:53:02;;;;;;;8.27;2.70;;;;;;;24.19;40.52;99981.72;4129187;28;20791;-69
2022/06/13 07:55:05;;;;;;;6.03;2.92;;;;;;;24.08;40.45;99993.47;4136123;28;20241;-68
2022/06/13 07:57:08;;;;;;;6.63;2.72;;;;;;;24.68;40.79;99981.19;4129672;28;20242;-68
2022/06/13 07:59:15;;;;;;;6.88;2.88;;;;;;;24.42;41.76;99983.50;4136459;28;20310;-68
2022/06/13 08:01:18;;;;;;;5.85;2.72;;;;;;;24.48;41.55;99982.53;4132929;28;20237;-68
2022/06/13 08:03:25;;;;;;;6.10;2.70;;;;;;;23.12;42.84;99980.31;4133063;28;20684;-70
2022/06/13 08:05:30;;;;;;;7.68;2.80;;;;;;;23.87;41.85;99968.63;4134438;28;20240;-68
2022/06/13 08:07:32;;;;;;;8.95;3.20;;;;;;;24.17;41.17;99962.13;4127150;28;20238;-69
2022/06/13 08:09:33;;;;;;;7.00;2.53;;;;;;;24.56;40.36;99973.13;4134830;28;20241;-68
2022/06/13 08:11:45;;;;;;;6.13;2.75;;;;;;;23.63;42.73;99970.59;4131307;28;20233;-68
2022/06/13 08:13:47;;;;;;;8.30;2.92;;;;;;;24.71;41.42;99958.13;4136247;28;20284;-68
2022/06/13 08:15:50;;;;;;;6.03;2.72;;;;;;;24.55;41.27;99970.63;4127179;28;20242;-68
2022/06/13 08:17:51;;;;;;;4.40;3.05;;;;;;;24.46;41.44;99962.91;4133558;28;20903;-68
2022/06/13 08:19:53;;;;;;;9.65;3.30;;;;;;;23.94;41.57;99969.31;4133531;28;20292;-68
2022/06/13 08:21:55;;;;;;;7.75;3.00;;;;;;;24.19;40.58;99973.56;4129339;28;20351;-68
2022/06/13 08:23:57;;;;;;;8.30;2.83;;;;;;;24.79;39.88;99972.16;4131444;28;20674;-68
2022/06/13 08:25:58;;;;;;;6.82;2.67;;;;;;;24.83;38.99;99972.47;4127938;28;20238;-68
2022/06/13 08:28:00;;;;;;;6.68;2.80;;;;;;;25.47;37.83;99982.13;4132808;28;20305;-68
2022/06/13 08:30:02;;;;;;;6.78;2.50;;;;;;;24.78;38.23;99984.09;4129891;28;20225;-69
2022/06/13 08:32:04;;;;;;;4.70;2.70;;;;;;;24.81;39.40;100001.81;4131985;28;20238;-68
2022/06/13 08:34:07;;;;;;;5.82;2.75;;;;;;;24.02;40.06;99988.97;4130000;28;20228;-69
2022/06/13 08:36:09;;;;;;;6.25;2.40;;;;;;;24.55;38.31;99973.34;4134491;28;20241;-68
2022/06/13 08:38:11;;;;;;;9.20;2.53;;;;;;;24.86;37.76;99972.81;4130703;28;20605;-69
2022/06/13 08:40:13;;;;;;;4.72;2.40;;;;;;;24.97;38.59;99990.13;4130975;28;20691;-69
2022/06/13 08:42:23;;;;;;;5.15;2.80;;;;;;;24.40;39.45;99980.19;4134747;28;20245;-69
2022/06/13 08:44:47;;;;;;;5.13;2.20;;;;;;;25.53;36.74;99975.66;4134979;28;20229;-69
2022/06/13 08:46:51;;;;;;;4.35;1.80;;;;;;;25.39;37.00;99981.47;4130671;28;20808;-69
2022/06/13 08:49:05;;;;;;;5.47;2.42;;;;;;;23.93;38.67;99991.25;4128348;28;20277;-69
2022/06/13 08:51:10;;;;;;;3.80;2.10;;;;;;;24.56;38.25;99973.13;4136934;28;20295;-69
2022/06/13 08:53:22;;;;;;;5.40;2.30;;;;;;;23.97;39.41;99981.56;4124065;28;20288;-69
2022/06/13 08:55:39;;;;;;;5.13;2.30;;;;;;;23.92;39.33;99976.03;4135665;28;20236;-69
2022/06/13 08:57:48;;;;;;;5.60;2.38;;;;;;;24.04;39.38;99967.81;4128257;28;20242;-69
2022/06/13 08:59:55;;;;;;;6.25;2.40;;;;;;;23.97;39.64;99964.44;4135711;28;20315;-68
2022/06/13 09:02:21;;;;;;;4.57;2.30;;;;;;;23.65;39.54;99967.63;4129088;28;20891;-69
2022/06/13 09:04:56;;;;;;;5.53;2.40;;;;;;;23.78;39.62;99963.81;4135815;28;20225;-69
2022/06/13 09:07:15;;;;;;;5.55;2.38;;;;;;;24.53;38.72;99948.31;4116920;28;20232;-69
2022/06/13 09:09:21;;;;;;;6.50;2.58;;;;;;;24.32;38.14;99961.56;4131953;28;20677;-69
2022/06/13 09:11:53;;;;;;;4.97;2.17;;;;;;;24.81;39.32;99953.69;4126092;28;20317;-69
2022/06/13 09:14:18;;;;;;;3.95;2.30;;;;;;;24.83;37.92;99965.16;4131410;28;20660;-69
2022/06/13 09:16:33;;;;;;;4.80;2.22;;;;;;;24.74;39.46;99963.06;4129032;28;20788;-69
2022/06/13 09:18:45;;;;;;;6.40;2.50;;;;;;;24.55;37.83;99960.59;4133994;28;20283;-69
2022/06/13 09:20:58;;;;;;;5.82;2.35;;;;;;;24.65;38.01;99971.66;4126227;28;20230;-69
2022/06/13 09:23:34;;;;;;;3.30;1.88;;;;;;;25.63;36.49;99961.31;4132812;28;20300;-69
2022/06/13 09:25:38;;;;;;;6.88;2.20;;;;;;;25.12;36.66;99988.69;4128282;28;20234;-67
2022/06/13 09:28:06;;;;;;;4.07;1.85;;;;;;;25.61;37.44;99980.66;4130953;28;20611;-67
2022/06/13 09:30:27;;;;;;;4.05;1.70;;;;;;;25.79;35.84;99982.22;4125238;28;20236;-67
2022/06/13 09:32:53;;;;;;;4.22;1.92;;;;;;;24.15;38.06;99994.13;4129254;28;20237;-67
2022/06/13 09:35:02;;;;;;;3.83;2.28;;;;;;;24.48;38.60;99982.53;4127105;28;20232;-66
2022/06/13 09:37:13;;;;;;;6.07;2.72;;;;;;;24.50;38.36;99972.22;4137430;28;20660;-67
2022/06/13 09:39:16;;;;;;;3.88;2.30;;;;;;;24.96;37.29;99966.69;4126109;28;20229;-67
2022/06/13 09:41:24;;;;;;;6.85;2.10;;;;;;;24.62;37.50;99974.84;4130292;28;20245;-67
2022/06/13 09:43:32;;;;;;;2.50;1.95;;;;;;;24.88;35.81;99972.56;4127276;28;20237;-67
2022/06/13 09:45:49;;;;;;;2.75;1.88;;;;;;;24.44;35.03;99977.81;4131972;28;20229;-69
2022/06/13 09:48:41;;;;;;;8.00;2.33;;;;;;;25.74;33.45;99963.91;4124724;28;20949;-69
2022/06/13 09:50:46;;;;;;;2.05;1.58;;;;;;;25.04;35.48;99988.03;4121017;28;20229;-69
2022/06/13 09:52:57;;;;;;;3.53;1.85;;;;;;;25.24;35.87;99968.47;4128517;28;21037;-69
2022/06/13 09:55:26;;;;;;;4.75;2.22;;;;;;;26.08;35.07;99971.13;4127029;28;20233;-69
2022/06/13 09:57:34;;;;;;;4.18;2.00;;;;;;;25.64;33.44;99977.41;4127925;28;20233;-69
2022/06/13 10:00:06;;;;;;;3.05;1.73;;;;;;;25.13;31.76;99974.00;4128788;28;20653;-69
2022/06/13 10:02:33;;;;;;;2.58;1.67;;;;;;;25.44;31.93;99979.88;4127732;28;20762;-69
2022/06/13 10:04:59;;;;;;;2.33;1.27;;;;;;;25.18;31.12;99987.69;4133511;28;20229;-69
2022/06/13 10:07:12;;;;;;;6.53;1.92;;;;;;;24.97;33.77;99990.13;4116031;28;20234;-69
2022/06/13 10:09:58;;;;;;;4.40;1.80;;;;;;;25.17;34.78;99981.44;4126505;28;20311;-69
2022/06/13 10:12:29;;;;;;;2.47;1.90;;;;;;;25.04;35.47;99968.19;4127542;28;20267;-69
2022/06/13 10:15:10;;;;;;;3.42;2.00;;;;;;;25.16;36.04;99947.13;4128256;28;20629;-69
2022/06/13 10:17:36;;;;;;;6.30;2.17;;;;;;;25.92;34.72;99943.69;4125904;28;20233;-69